Time;durP1;ratioP1;P1;durP2;ratioP2;P2;SDS_P1;SDS_P2;PMS_P1;PMS_P2;Temp;Humidity;BMP_temperature;BMP_pressure;BME280_temperature;BME280_humidity;BME280_pressure;Samples;Min_cycle;Max_cycle;Signal;HPM_P1;HPM_P2
2022/06/28 04:02:58;;;;;;;1999.90;999.90;;;;;;;;;;6214374;23;20219;-71
2022/06/28 04:05:45;;;;;;;1999.90;999.90;;;;;;;;;;6213571;23;20208;-70
2022/06/28 04:08:30;;;;;;;1999.90;999.90;;;;;;;;;;6213680;23;20172;-70
2022/06/28 04:11:15;;;;;;;1999.90;999.90;;;;;;;;;;6202701;23;20549;-70
2022/06/28 04:14:00;;;;;;;1999.90;999.90;;;;;;;;;;6184887;23;20169;-69
2022/06/28 04:16:47;;;;;;;1999.90;999.90;;;;;;;;;;6183173;23;20407;-71
2022/06/28 04:19:33;;;;;;;1999.90;999.90;;;;;;;;;;6184045;23;20671;-71
2022/06/28 04:22:18;;;;;;;1999.90;999.90;;;;;;;;;;6184754;23;20570;-71
2022/06/28 04:25:03;;;;;;;1999.90;999.90;;;;;;;;;;6184529;23;20174;-71
2022/06/28 04:27:48;;;;;;;1999.90;999.90;;;;;;;;;;6184258;23;20169;-70
2022/06/28 04:30:33;;;;;;;1999.90;999.90;;;;;;;;;;6184298;23;20380;-71
2022/06/28 04:33:18;;;;;;;1999.90;999.90;;;;;;;;;;6184216;23;20166;-71
2022/06/28 04:36:05;;;;;;;1999.90;999.90;;;;;;;;;;6183752;23;20178;-72
2022/06/28 04:38:50;;;;;;;1999.90;999.90;;;;;;;;;;6183828;23;20166;-70
2022/06/28 04:41:35;;;;;;;1999.90;999.90;;;;;;;;;;6184435;23;20206;-70
2022/06/28 04:44:20;;;;;;;1999.90;999.90;;;;;;;;;;6184498;23;20190;-70
2022/06/28 04:47:05;;;;;;;1999.90;999.90;;;;;;;;;;6184163;23;20201;-69
2022/06/28 04:49:50;;;;;;;1999.90;999.90;;;;;;;;;;6184175;23;20657;-70
2022/06/28 04:52:37;;;;;;;1999.90;999.90;;;;;;;;;;6183188;23;20761;-69
2022/06/28 04:55:22;;;;;;;1999.90;999.90;;;;;;;;;;6184098;23;20260;-70
2022/06/28 04:58:07;;;;;;;1999.90;999.90;;;;;;;;;;6183953;23;20186;-71
2022/06/28 05:00:52;;;;;;;1999.90;999.90;;;;;;;;;;6184089;23;20286;-70
2022/06/28 05:03:38;;;;;;;1999.90;999.90;;;;;;;;;;6183321;23;20376;-70
2022/06/28 05:06:22;;;;;;;1999.90;999.90;;;;;;;;;;6184420;23;20636;-70
2022/06/28 05:09:09;;;;;;;1999.90;999.90;;;;;;;;;;6180843;23;20170;-70
2022/06/28 05:11:53;;;;;;;1999.90;999.90;;;;;;;;;;6183434;23;20201;-72
2022/06/28 05:14:38;;;;;;;1999.90;999.90;;;;;;;;;;6182742;23;20261;-68
2022/06/28 05:17:23;;;;;;;1999.90;999.90;;;;;;;;;;6183833;23;20737;-69
2022/06/28 05:20:09;;;;;;;1999.90;999.90;;;;;;;;;;6184090;23;20363;-71
2022/06/28 05:22:54;;;;;;;1999.90;999.90;;;;;;;;;;6184251;23;20166;-71
2022/06/28 05:25:41;;;;;;;1999.90;999.90;;;;;;;;;;6184189;23;20621;-68
2022/06/28 05:28:26;;;;;;;1999.90;999.90;;;;;;;;;;6183781;23;20167;-70
2022/06/28 05:31:10;;;;;;;1999.90;999.90;;;;;;;;;;6184101;23;20669;-70
2022/06/28 05:33:55;;;;;;;1999.90;999.90;;;;;;;;;;6184131;23;20169;-70
2022/06/28 05:36:41;;;;;;;1999.90;999.90;;;;;;;;;;6184041;23;20170;-70
2022/06/28 05:39:26;;;;;;;1999.90;999.90;;;;;;;;;;6183778;23;20171;-71
2022/06/28 05:42:14;;;;;;;1999.90;999.90;;;;;;;;;;6184081;23;20249;-70
2022/06/28 05:44:59;;;;;;;1999.90;999.90;;;;;;;;;;6183995;23;20166;-70
2022/06/28 05:47:45;;;;;;;1999.90;999.90;;;;;;;;;;6183960;23;20668;-69
2022/06/28 05:50:30;;;;;;;1999.90;999.90;;;;;;;;;;6184090;23;20213;-68
2022/06/28 05:53:15;;;;;;;1999.90;999.90;;;;;;;;;;6183809;23;20250;-68
2022/06/28 05:56:00;;;;;;;1999.90;999.90;;;;;;;;;;6182943;23;20224;-68
2022/06/28 05:58:46;;;;;;;1999.90;999.90;;;;;;;;;;6182495;23;20189;-69
2022/06/28 06:01:31;;;;;;;1999.90;999.90;;;;;;;;;;6183736;23;20209;-70
2022/06/28 06:04:16;;;;;;;1999.90;999.90;;;;;;;;;;6182200;23;20424;-69
2022/06/28 06:07:01;;;;;;;1999.90;999.90;;;;;;;;;;6183878;23;20229;-69
2022/06/28 06:09:46;;;;;;;1999.90;999.90;;;;;;;;;;6183573;23;20246;-69
2022/06/28 06:12:31;;;;;;;1999.90;999.90;;;;;;;;;;6183490;23;20720;-69
2022/06/28 06:15:17;;;;;;;1999.90;999.90;;;;;;;;;;6182466;23;20182;-71
2022/06/28 06:18:02;;;;;;;1999.90;999.90;;;;;;;;;;6182823;23;20237;-70
2022/06/28 06:20:47;;;;;;;1999.90;999.90;;;;;;;;;;6181857;23;20208;-70
2022/06/28 06:23:32;;;;;;;1999.90;999.90;;;;;;;;;;6181839;23;20171;-69
2022/06/28 06:26:17;;;;;;;1999.90;999.90;;;;;;;;;;6181102;23;20234;-69
2022/06/28 06:29:02;;;;;;;1999.90;999.90;;;;;;;;;;6181539;23;20165;-70
2022/06/28 06:31:48;;;;;;;1999.90;999.90;;;;;;;;;;6181442;23;20267;-70
2022/06/28 06:34:33;;;;;;;1999.90;999.90;;;;;;;;;;6181624;23;20526;-70
2022/06/28 06:37:18;;;;;;;1999.90;999.90;;;;;;;;;;6181109;23;20210;-70
2022/06/28 06:40:03;;;;;;;1999.90;999.90;;;;;;;;;;6179896;23;20169;-70
2022/06/28 06:42:48;;;;;;;1999.90;999.90;;;;;;;;;;6180220;23;20213;-70
2022/06/28 06:45:33;;;;;;;1999.90;999.90;;;;;;;;;;6180222;23;20174;-71
2022/06/28 06:48:19;;;;;;;1999.90;999.90;;;;;;;;;;6180060;23;20296;-70
2022/06/28 06:51:06;;;;;;;1999.90;999.90;;;;;;;;;;6180163;23;20249;-69
2022/06/28 06:53:51;;;;;;;1999.90;999.90;;;;;;;;;;6180335;23;20170;-68
2022/06/28 06:56:36;;;;;;;1999.90;999.90;;;;;;;;;;6180422;23;20206;-70
2022/06/28 06:59:21;;;;;;;1999.90;999.90;;;;;;;;;;6180609;23;20171;-69
2022/06/28 07:02:08;;;;;;;1999.90;999.90;;;;;;;;;;6180240;23;20257;-69
2022/06/28 07:04:55;;;;;;;1999.90;999.90;;;;;;;;;;6180814;23;20174;-69
2022/06/28 07:07:40;;;;;;;1999.90;999.90;;;;;;;;;;6181355;23;20238;-68
2022/06/28 07:10:25;;;;;;;1999.90;999.90;;;;;;;;;;6181226;23;20621;-68
2022/06/28 07:13:10;;;;;;;1999.90;999.90;;;;;;;;;;6181487;23;20170;-69
2022/06/28 07:15:55;;;;;;;1999.90;999.90;;;;;;;;;;6182156;23;20171;-70
2022/06/28 07:18:42;;;;;;;1999.90;999.90;;;;;;;;;;6181797;23;20194;-68
2022/06/28 07:21:28;;;;;;;1999.90;999.90;;;;;;;;;;6181385;23;20508;-69
2022/06/28 07:24:14;;;;;;;1999.90;999.90;;;;;;;;;;6182527;23;20285;-69
2022/06/28 07:26:59;;;;;;;1999.90;999.90;;;;;;;;;;6181752;23;20169;-68
2022/06/28 07:29:44;;;;;;;1999.90;999.90;;;;;;;;;;6181586;23;20170;-69
2022/06/28 07:32:29;;;;;;;1999.90;999.90;;;;;;;;;;6180836;23;20429;-70
2022/06/28 07:35:13;;;;;;;1999.90;999.90;;;;;;;;;;6182376;23;20174;-69
2022/06/28 07:38:00;;;;;;;1999.90;999.90;;;;;;;;;;6181973;23;20310;-68
2022/06/28 07:40:44;;;;;;;1999.90;999.90;;;;;;;;;;6182703;23;20548;-69
2022/06/28 07:43:29;;;;;;;1999.90;999.90;;;;;;;;;;6182763;23;20226;-69
2022/06/28 07:46:14;;;;;;;1999.90;999.90;;;;;;;;;;6182936;23;20170;-69
2022/06/28 07:48:59;;;;;;;1999.90;999.90;;;;;;;;;;6181992;23;20246;-67
2022/06/28 07:54:48;;;;;;;1999.90;999.90;;;;;;;;;;6182540;23;20165;-68
2022/06/28 07:57:33;;;;;;;1999.90;999.90;;;;;;;;;;6182770;23;20653;-68
2022/06/28 08:00:21;;;;;;;1999.90;999.90;;;;;;;;;;6182371;23;20639;-67
2022/06/28 08:03:06;;;;;;;1999.90;999.90;;;;;;;;;;6182132;23;20170;-69
2022/06/28 08:05:51;;;;;;;1999.90;999.90;;;;;;;;;;6181550;23;20178;-69
2022/06/28 08:08:36;;;;;;;1999.90;999.90;;;;;;;;;;6180914;23;20501;-69
2022/06/28 08:11:22;;;;;;;1999.90;999.90;;;;;;;;;;6181085;23;20205;-69
2022/06/28 08:14:11;;;;;;;1999.90;999.90;;;;;;;;;;6181475;23;20166;-69
2022/06/28 08:16:57;;;;;;;1999.90;999.90;;;;;;;;;;6181299;23;20182;-69
2022/06/28 08:19:42;;;;;;;1999.90;999.90;;;;;;;;;;6181306;23;20182;-68
2022/06/28 08:22:28;;;;;;;1999.90;999.90;;;;;;;;;;6181579;23;20205;-68
2022/06/28 08:25:13;;;;;;;1999.90;999.90;;;;;;;;;;6181714;23;20805;-68
2022/06/28 08:28:00;;;;;;;1999.90;999.90;;;;;;;;;;6181082;23;20182;-69
2022/06/28 08:30:45;;;;;;;1999.90;999.90;;;;;;;;;;6181342;23;20206;-68
2022/06/28 08:33:30;;;;;;;1999.90;999.90;;;;;;;;;;6181723;23;20238;-69
2022/06/28 08:36:15;;;;;;;1999.90;999.90;;;;;;;;;;6182961;23;20174;-70
2022/06/28 08:39:00;;;;;;;1999.90;999.90;;;;;;;;;;6181419;23;20197;-69
2022/06/28 08:41:47;;;;;;;1999.90;999.90;;;;;;;;;;6182085;23;20684;-70
2022/06/28 08:44:34;;;;;;;1999.90;999.90;;;;;;;;;;6182541;23;20170;-67
2022/06/28 08:47:20;;;;;;;1999.90;999.90;;;;;;;;;;6182434;23;20380;-70
2022/06/28 08:50:06;;;;;;;1999.90;999.90;;;;;;;;;;6181674;23;20258;-69
2022/06/28 08:52:53;;;;;;;1999.90;999.90;;;;;;;;;;6181737;23;20198;-69
2022/06/28 08:55:38;;;;;;;1999.90;999.90;;;;;;;;;;6181899;23;20167;-69
2022/06/28 08:58:23;;;;;;;1999.90;999.90;;;;;;;;;;6182100;23;20189;-70
2022/06/28 09:01:10;;;;;;;1999.90;999.90;;;;;;;;;;6180915;23;20248;-71
2022/06/28 09:03:56;;;;;;;1999.90;999.90;;;;;;;;;;6180985;23;20960;-69
2022/06/28 09:06:41;;;;;;;1999.90;999.90;;;;;;;;;;6181357;23;20173;-72
2022/06/28 09:09:26;;;;;;;1999.90;999.90;;;;;;;;;;6180922;23;20166;-69
2022/06/28 09:12:11;;;;;;;1999.90;999.90;;;;;;;;;;6180829;23;20206;-69
2022/06/28 09:14:57;;;;;;;1999.90;999.90;;;;;;;;;;6182047;23;20256;-69
2022/06/28 09:17:44;;;;;;;1999.90;999.90;;;;;;;;;;6181344;23;20170;-70
2022/06/28 09:20:35;;;;;;;1999.90;999.90;;;;;;;;;;6181743;23;20685;-70
2022/06/28 09:23:21;;;;;;;1999.90;999.90;;;;;;;;;;6181725;23;20297;-69
2022/06/28 09:26:07;;;;;;;1999.90;999.90;;;;;;;;;;6182160;23;20336;-69
2022/06/28 09:28:53;;;;;;;1999.90;999.90;;;;;;;;;;6181665;23;20494;-69
2022/06/28 09:31:38;;;;;;;1999.90;999.90;;;;;;;;;;6181316;23;20325;-70
2022/06/28 09:34:24;;;;;;;1999.90;999.90;;;;;;;;;;6181920;23;20210;-70
2022/06/28 09:37:09;;;;;;;1999.90;999.90;;;;;;;;;;6181846;23;20664;-69
2022/06/28 09:39:54;;;;;;;1999.90;999.90;;;;;;;;;;6181294;23;20201;-69
2022/06/28 09:42:39;;;;;;;1999.90;999.90;;;;;;;;;;6181663;23;20208;-70
2022/06/28 09:45:25;;;;;;;1999.90;999.90;;;;;;;;;;6182115;23;20521;-69
2022/06/28 09:48:15;;;;;;;1999.90;999.90;;;;;;;;;;6181628;23;20522;-69
2022/06/28 09:51:01;;;;;;;1999.90;999.90;;;;;;;;;;6181753;23;20410;-70
2022/06/28 09:53:47;;;;;;;1999.90;999.90;;;;;;;;;;6181235;23;20513;-69
2022/06/28 09:56:34;;;;;;;1999.90;999.90;;;;;;;;;;6181655;23;20172;-70
2022/06/28 09:59:19;;;;;;;1999.90;999.90;;;;;;;;;;6181310;23;20211;-70
2022/06/28 10:02:05;;;;;;;1999.90;999.90;;;;;;;;;;6180562;23;20235;-69
2022/06/28 10:04:50;;;;;;;1999.90;999.90;;;;;;;;;;6182081;23;20625;-69
2022/06/28 10:07:36;;;;;;;1999.90;999.90;;;;;;;;;;6181458;23;20178;-69
2022/06/28 10:10:22;;;;;;;1999.90;999.90;;;;;;;;;;6180738;23;20509;-69
2022/06/28 10:16:14;;;;;;;1999.90;999.90;;;;;;;;;;6181200;23;20171;-69
2022/06/28 10:19:00;;;;;;;1999.90;999.90;;;;;;;;;;6180600;23;20193;-69
2022/06/28 10:21:46;;;;;;;1999.90;999.90;;;;;;;;;;6179935;23;21003;-69
2022/06/28 10:24:46;;;;;;;1999.90;999.90;;;;;;;;;;6180952;23;20170;-69
2022/06/28 10:27:43;;;;;;;1999.90;999.90;;;;;;;;;;6181520;23;20512;-69
2022/06/28 10:30:29;;;;;;;1999.90;999.90;;;;;;;;;;6181713;23;20213;-70
2022/06/28 10:33:14;;;;;;;1999.90;999.90;;;;;;;;;;6181523;23;20297;-69
2022/06/28 10:35:59;;;;;;;1999.90;999.90;;;;;;;;;;6181446;23;20361;-69
2022/06/28 10:39:03;;;;;;;1999.90;999.90;;;;;;;;;;6181143;23;20198;-69
2022/06/28 10:41:49;;;;;;;1999.90;999.90;;;;;;;;;;6181621;23;20206;-69
2022/06/28 10:44:47;;;;;;;1999.90;999.90;;;;;;;;;;6181673;23;20169;-69
2022/06/28 10:47:31;;;;;;;1999.90;999.90;;;;;;;;;;6181566;23;20167;-69
2022/06/28 10:50:16;;;;;;;1999.90;999.90;;;;;;;;;;6181632;23;20278;-70
2022/06/28 10:53:02;;;;;;;1999.90;999.90;;;;;;;;;;6183427;23;20182;-69
2022/06/28 10:56:15;;;;;;;1999.90;999.90;;;;;;;;;;6182824;23;20519;-69
2022/06/28 10:59:02;;;;;;;1999.90;999.90;;;;;;;;;;6182969;23;20283;-69
2022/06/28 11:01:58;;;;;;;1999.90;999.90;;;;;;;;;;6182689;23;20677;-69
2022/06/28 11:04:44;;;;;;;1999.90;999.90;;;;;;;;;;6183243;23;20669;-69
2022/06/28 11:07:31;;;;;;;1999.90;999.90;;;;;;;;;;6182572;23;20179;-70
2022/06/28 11:10:17;;;;;;;1999.90;999.90;;;;;;;;;;6182075;23;20690;-69
2022/06/28 11:13:17;;;;;;;1999.90;999.90;;;;;;;;;;6183208;23;20179;-69
2022/06/28 11:16:02;;;;;;;1999.90;999.90;;;;;;;;;;6183311;23;20172;-69
2022/06/28 11:19:04;;;;;;;1999.90;999.90;;;;;;;;;;6182697;23;20521;-69
2022/06/28 11:21:48;;;;;;;1999.90;999.90;;;;;;;;;;6182817;23;20212;-69
2022/06/28 11:24:33;;;;;;;1999.90;999.90;;;;;;;;;;6183190;23;20185;-70
2022/06/28 11:27:21;;;;;;;1999.90;999.90;;;;;;;;;;6181895;23;20451;-69
2022/06/28 11:30:07;;;;;;;1999.90;999.90;;;;;;;;;;6181494;23;20508;-69
2022/06/28 11:32:53;;;;;;;1999.90;999.90;;;;;;;;;;6180601;23;20176;-69
2022/06/28 11:35:40;;;;;;;1999.90;999.90;;;;;;;;;;6182544;23;20173;-68
2022/06/28 11:38:25;;;;;;;1999.90;999.90;;;;;;;;;;6183064;23;20176;-69
2022/06/28 11:41:10;;;;;;;1999.90;999.90;;;;;;;;;;6182866;23;20248;-70
2022/06/28 11:43:56;;;;;;;1999.90;999.90;;;;;;;;;;6182863;23;20452;-70
2022/06/28 11:46:41;;;;;;;1999.90;999.90;;;;;;;;;;6182978;23;20233;-69
2022/06/28 11:49:26;;;;;;;1999.90;999.90;;;;;;;;;;6182442;23;20177;-69
2022/06/28 11:52:16;;;;;;;1999.90;999.90;;;;;;;;;;6181562;23;20253;-70
2022/06/28 11:55:01;;;;;;;1999.90;999.90;;;;;;;;;;6181911;23;20380;-69
2022/06/28 11:57:46;;;;;;;1999.90;999.90;;;;;;;;;;6182551;23;20402;-70
2022/06/28 12:00:31;;;;;;;1999.90;999.90;;;;;;;;;;6183883;23;20196;-70
2022/06/28 12:03:16;;;;;;;1999.90;999.90;;;;;;;;;;6184523;23;20172;-69
2022/06/28 12:06:02;;;;;;;1999.90;999.90;;;;;;;;;;6184534;23;20183;-70
2022/06/28 12:08:50;;;;;;;1999.90;999.90;;;;;;;;;;6184348;23;20245;-70
2022/06/28 12:11:35;;;;;;;1999.90;999.90;;;;;;;;;;6182486;23;20454;-71
2022/06/28 12:14:21;;;;;;;1999.90;999.90;;;;;;;;;;6184421;23;20527;-71
2022/06/28 12:17:07;;;;;;;1999.90;999.90;;;;;;;;;;6184637;23;20250;-69
2022/06/28 12:19:51;;;;;;;1999.90;999.90;;;;;;;;;;6183735;23;20240;-69
2022/06/28 12:22:36;;;;;;;1999.90;999.90;;;;;;;;;;6183404;23;20632;-69
2022/06/28 12:25:22;;;;;;;1999.90;999.90;;;;;;;;;;6184067;23;20289;-70
2022/06/28 12:28:08;;;;;;;1999.90;999.90;;;;;;;;;;6182897;23;20538;-69
2022/06/28 12:30:53;;;;;;;1999.90;999.90;;;;;;;;;;6183576;23;20201;-70
2022/06/28 12:33:38;;;;;;;1999.90;999.90;;;;;;;;;;6184378;23;20256;-69
2022/06/28 12:36:22;;;;;;;1999.90;999.90;;;;;;;;;;6184590;23;20166;-70
2022/06/28 12:39:07;;;;;;;1999.90;999.90;;;;;;;;;;6183818;23;20194;-68
2022/06/28 12:41:54;;;;;;;1999.90;999.90;;;;;;;;;;6183371;23;20436;-70
2022/06/28 12:44:38;;;;;;;1999.90;999.90;;;;;;;;;;6184237;23;20264;-69
2022/06/28 12:47:23;;;;;;;1999.90;999.90;;;;;;;;;;6184654;23;20170;-68
2022/06/28 12:50:10;;;;;;;1999.90;999.90;;;;;;;;;;6184156;23;20209;-70
2022/06/28 12:52:55;;;;;;;1999.90;999.90;;;;;;;;;;6184350;23;20781;-69
2022/06/28 12:55:40;;;;;;;1999.90;999.90;;;;;;;;;;6184226;23;20232;-69
2022/06/28 12:58:26;;;;;;;1999.90;999.90;;;;;;;;;;6182338;23;20461;-70
2022/06/28 13:01:11;;;;;;;1999.90;999.90;;;;;;;;;;6183520;23;20222;-69
2022/06/28 13:03:56;;;;;;;1999.90;999.90;;;;;;;;;;6182871;23;20238;-69
2022/06/28 13:06:44;;;;;;;1999.90;999.90;;;;;;;;;;6182941;23;20170;-69
2022/06/28 13:09:29;;;;;;;1999.90;999.90;;;;;;;;;;6182901;23;20222;-70
2022/06/28 13:12:14;;;;;;;1999.90;999.90;;;;;;;;;;6183152;23;20205;-69
2022/06/28 13:15:00;;;;;;;1999.90;999.90;;;;;;;;;;6182536;23;20173;-70
2022/06/28 13:17:45;;;;;;;1999.90;999.90;;;;;;;;;;6183916;23;20170;-69
2022/06/28 13:20:30;;;;;;;1999.90;999.90;;;;;;;;;;6183836;23;20240;-70
2022/06/28 13:23:15;;;;;;;1999.90;999.90;;;;;;;;;;6182905;23;20234;-69
2022/06/28 13:25:59;;;;;;;1999.90;999.90;;;;;;;;;;6182784;23;20620;-69
2022/06/28 13:28:45;;;;;;;1999.90;999.90;;;;;;;;;;6182350;23;20170;-69
2022/06/28 13:31:31;;;;;;;1999.90;999.90;;;;;;;;;;6182670;23;20201;-70
2022/06/28 13:34:16;;;;;;;1999.90;999.90;;;;;;;;;;6182690;23;20600;-71
2022/06/28 13:37:02;;;;;;;1999.90;999.90;;;;;;;;;;6182774;23;20235;-69
2022/06/28 13:39:47;;;;;;;1999.90;999.90;;;;;;;;;;6182138;23;20192;-68
2022/06/28 13:42:32;;;;;;;1999.90;999.90;;;;;;;;;;6181966;23;20705;-69
2022/06/28 13:45:19;;;;;;;1999.90;999.90;;;;;;;;;;6182588;23;20173;-67
2022/06/28 13:48:05;;;;;;;1999.90;999.90;;;;;;;;;;6182345;23;20279;-69
2022/06/28 13:50:50;;;;;;;1999.90;999.90;;;;;;;;;;6182536;23;20285;-69
2022/06/28 13:53:36;;;;;;;1999.90;999.90;;;;;;;;;;6182706;23;20629;-68
2022/06/28 13:56:21;;;;;;;1999.90;999.90;;;;;;;;;;6182152;23;20267;-70
2022/06/28 13:59:06;;;;;;;1999.90;999.90;;;;;;;;;;6182231;23;20564;-69
2022/06/28 14:01:51;;;;;;;1999.90;999.90;;;;;;;;;;6182313;23;20220;-67
2022/06/28 14:04:37;;;;;;;1999.90;999.90;;;;;;;;;;6182631;23;20173;-70
2022/06/28 14:07:22;;;;;;;1999.90;999.90;;;;;;;;;;6182642;23;20170;-70
2022/06/28 14:10:08;;;;;;;1999.90;999.90;;;;;;;;;;6182843;23;20185;-68
2022/06/28 14:12:53;;;;;;;1999.90;999.90;;;;;;;;;;6182311;23;20388;-68
2022/06/28 14:15:38;;;;;;;1999.90;999.90;;;;;;;;;;6182581;23;20210;-69
2022/06/28 14:18:23;;;;;;;1999.90;999.90;;;;;;;;;;6181939;23;20177;-69
2022/06/28 14:21:10;;;;;;;1999.90;999.90;;;;;;;;;;6182319;23;20214;-68
2022/06/28 14:23:55;;;;;;;1999.90;999.90;;;;;;;;;;6182336;23;20166;-68
2022/06/28 14:26:40;;;;;;;1999.90;999.90;;;;;;;;;;6184363;23;20506;-69
2022/06/28 14:29:28;;;;;;;1999.90;999.90;;;;;;;;;;6183064;23;20388;-67
2022/06/28 14:32:14;;;;;;;1999.90;999.90;;;;;;;;;;6184274;23;20277;-70
2022/06/28 14:34:58;;;;;;;1999.90;999.90;;;;;;;;;;6184082;23;20508;-67
2022/06/28 14:37:45;;;;;;;1999.90;999.90;;;;;;;;;;6183650;23;20192;-69
2022/06/28 14:40:32;;;;;;;1999.90;999.90;;;;;;;;;;6184011;23;20274;-69
2022/06/28 14:43:17;;;;;;;1999.90;999.90;;;;;;;;;;6183699;23;20177;-69
2022/06/28 14:46:02;;;;;;;1999.90;999.90;;;;;;;;;;6183825;23;20213;-69
2022/06/28 14:48:48;;;;;;;1999.90;999.90;;;;;;;;;;6183814;23;20189;-69
2022/06/28 14:51:33;;;;;;;1999.90;999.90;;;;;;;;;;6184200;23;20253;-68
2022/06/28 14:54:19;;;;;;;1999.90;999.90;;;;;;;;;;6184209;23;20609;-69
2022/06/28 14:57:06;;;;;;;1999.90;999.90;;;;;;;;;;6184258;23;20222;-68
2022/06/28 14:59:51;;;;;;;1999.90;999.90;;;;;;;;;;6182997;23;20728;-69
2022/06/28 15:02:36;;;;;;;1999.90;999.90;;;;;;;;;;6184244;23;20213;-70
2022/06/28 15:05:21;;;;;;;1999.90;999.90;;;;;;;;;;6184121;23;20209;-69
2022/06/28 15:08:06;;;;;;;1999.90;999.90;;;;;;;;;;6183860;23;20168;-70
2022/06/28 15:10:52;;;;;;;1999.90;999.90;;;;;;;;;;6183857;23;20205;-70
2022/06/28 15:13:38;;;;;;;1999.90;999.90;;;;;;;;;;6183981;23;20616;-68
2022/06/28 15:16:23;;;;;;;1999.90;999.90;;;;;;;;;;6184095;23;20373;-68
2022/06/28 15:19:08;;;;;;;1999.90;999.90;;;;;;;;;;6184970;23;20675;-68
2022/06/28 15:31:03;;;;;;;1999.90;999.90;;;;;;;;;;6184592;23;20262;-69
2022/06/28 15:33:51;;;;;;;1999.90;999.90;;;;;;;;;;6184688;23;20168;-69
2022/06/28 15:36:36;;;;;;;1999.90;999.90;;;;;;;;;;6184071;23;20263;-69
2022/06/28 15:39:21;;;;;;;1999.90;999.90;;;;;;;;;;6184577;23;20656;-69
2022/06/28 15:42:07;;;;;;;1999.90;999.90;;;;;;;;;;6184595;23;20253;-69
2022/06/28 15:44:54;;;;;;;1999.90;999.90;;;;;;;;;;6184277;23;20173;-70
2022/06/28 15:47:38;;;;;;;1999.90;999.90;;;;;;;;;;6185257;23;20166;-70
2022/06/28 15:50:23;;;;;;;1999.90;999.90;;;;;;;;;;6184937;23;20242;-69
2022/06/28 15:53:09;;;;;;;1999.90;999.90;;;;;;;;;;6184727;23;20172;-70
2022/06/28 15:55:54;;;;;;;1999.90;999.90;;;;;;;;;;6184981;23;20175;-70
2022/06/28 15:58:39;;;;;;;1999.90;999.90;;;;;;;;;;6183455;23;20214;-69
2022/06/28 16:01:25;;;;;;;1999.90;999.90;;;;;;;;;;6184491;23;20214;-70
2022/06/28 16:04:11;;;;;;;1999.90;999.90;;;;;;;;;;6183183;23;20392;-69
2022/06/28 16:06:55;;;;;;;1999.90;999.90;;;;;;;;;;6185204;23;20541;-70
2022/06/28 16:09:41;;;;;;;1999.90;999.90;;;;;;;;;;6184583;23;20173;-69
2022/06/28 16:15:29;;;;;;;1999.90;999.90;;;;;;;;;;6184652;23;20169;-69
2022/06/28 16:18:19;;;;;;;1999.90;999.90;;;;;;;;;;6184841;23;20212;-69
2022/06/28 16:21:04;;;;;;;1999.90;999.90;;;;;;;;;;6184646;23;20215;-70
2022/06/28 16:23:49;;;;;;;1999.90;999.90;;;;;;;;;;6184626;23;20500;-70
2022/06/28 16:26:34;;;;;;;1999.90;999.90;;;;;;;;;;6184484;23;20170;-69
2022/06/28 16:29:18;;;;;;;1999.90;999.90;;;;;;;;;;6184080;23;20615;-70
2022/06/28 16:32:03;;;;;;;1999.90;999.90;;;;;;;;;;6184462;23;20233;-70
2022/06/28 16:34:50;;;;;;;1999.90;999.90;;;;;;;;;;6184314;23;20176;-68
2022/06/28 16:37:35;;;;;;;1999.90;999.90;;;;;;;;;;6184543;23;20224;-68
2022/06/28 16:40:21;;;;;;;1999.90;999.90;;;;;;;;;;6184377;23;20212;-69
2022/06/28 16:43:06;;;;;;;1999.90;999.90;;;;;;;;;;6184289;23;20201;-69
2022/06/28 16:45:51;;;;;;;1999.90;999.90;;;;;;;;;;6184433;23;20167;-69
2022/06/28 16:48:36;;;;;;;1999.90;999.90;;;;;;;;;;6183259;23;20364;-70
2022/06/28 16:51:22;;;;;;;1999.90;999.90;;;;;;;;;;6184189;23;20687;-69
2022/06/28 16:54:07;;;;;;;1999.90;999.90;;;;;;;;;;6184456;23;20171;-68
2022/06/28 16:56:52;;;;;;;1999.90;999.90;;;;;;;;;;6184293;23;20250;-68
2022/06/28 16:59:38;;;;;;;1999.90;999.90;;;;;;;;;;6182564;23;20684;-69
2022/06/28 17:02:23;;;;;;;1999.90;999.90;;;;;;;;;;6182739;23;20211;-69
2022/06/28 17:05:08;;;;;;;1999.90;999.90;;;;;;;;;;6182936;23;20218;-69
2022/06/28 17:07:54;;;;;;;1999.90;999.90;;;;;;;;;;6182651;23;20168;-68
2022/06/28 17:10:39;;;;;;;1999.90;999.90;;;;;;;;;;6182866;23;20164;-69
2022/06/28 17:13:24;;;;;;;1999.90;999.90;;;;;;;;;;6182797;23;20168;-69
2022/06/28 17:16:09;;;;;;;1999.90;999.90;;;;;;;;;;6182947;23;20182;-69
2022/06/28 17:18:54;;;;;;;1999.90;999.90;;;;;;;;;;6182275;23;20180;-69
2022/06/28 17:21:39;;;;;;;1999.90;999.90;;;;;;;;;;6182545;23;20219;-68
2022/06/28 17:24:25;;;;;;;1999.90;999.90;;;;;;;;;;6183179;23;20251;-69
2022/06/28 17:27:10;;;;;;;1999.90;999.90;;;;;;;;;;6182744;23;20257;-68
2022/06/28 17:29:55;;;;;;;1999.90;999.90;;;;;;;;;;6182398;23;20169;-70
2022/06/28 17:32:40;;;;;;;1999.90;999.90;;;;;;;;;;6182491;23;20202;-69
2022/06/28 17:35:25;;;;;;;1999.90;999.90;;;;;;;;;;6181091;23;20467;-70
2022/06/28 17:38:11;;;;;;;1999.90;999.90;;;;;;;;;;6182224;23;20214;-69
2022/06/28 17:40:57;;;;;;;1999.90;999.90;;;;;;;;;;6182352;23;20294;-71
2022/06/28 17:43:42;;;;;;;1999.90;999.90;;;;;;;;;;6182358;23;20298;-70
2022/06/28 17:46:27;;;;;;;1999.90;999.90;;;;;;;;;;6183350;23;20166;-69
2022/06/28 17:49:12;;;;;;;1999.90;999.90;;;;;;;;;;6183019;23;20172;-71
2022/06/28 17:52:00;;;;;;;1999.90;999.90;;;;;;;;;;6181811;23;20202;-69
2022/06/28 17:54:45;;;;;;;1999.90;999.90;;;;;;;;;;6181830;23;20172;-68
2022/06/28 17:57:32;;;;;;;1999.90;999.90;;;;;;;;;;6181333;23;20462;-70
2022/06/28 18:00:19;;;;;;;1999.90;999.90;;;;;;;;;;6181610;23;20233;-69
2022/06/28 18:03:03;;;;;;;1999.90;999.90;;;;;;;;;;6181789;23;20172;-70
2022/06/28 18:05:48;;;;;;;1999.90;999.90;;;;;;;;;;6180610;23;20467;-69
2022/06/28 18:08:33;;;;;;;1999.90;999.90;;;;;;;;;;6180994;23;20170;-70
2022/06/28 18:11:19;;;;;;;1999.90;999.90;;;;;;;;;;6181531;23;20198;-70
2022/06/28 18:14:06;;;;;;;1999.90;999.90;;;;;;;;;;6182052;23;20190;-69
2022/06/28 18:16:51;;;;;;;1999.90;999.90;;;;;;;;;;6181181;23;20509;-67
2022/06/28 18:19:36;;;;;;;1999.90;999.90;;;;;;;;;;6181476;23;20170;-70
2022/06/28 18:22:21;;;;;;;1999.90;999.90;;;;;;;;;;6180061;23;20403;-70
2022/06/28 18:25:06;;;;;;;1999.90;999.90;;;;;;;;;;6181993;23;20168;-69
2022/06/28 18:27:51;;;;;;;1999.90;999.90;;;;;;;;;;6180936;23;20179;-69
2022/06/28 18:30:38;;;;;;;1999.90;999.90;;;;;;;;;;6180881;23;20168;-69
2022/06/28 18:33:23;;;;;;;1999.90;999.90;;;;;;;;;;6181226;23;20252;-69
2022/06/28 18:36:08;;;;;;;1999.90;999.90;;;;;;;;;;6181569;23;20791;-70
2022/06/28 18:38:53;;;;;;;1999.90;999.90;;;;;;;;;;6182345;23;20167;-69
2022/06/28 18:41:38;;;;;;;1999.90;999.90;;;;;;;;;;6183396;23;20281;-68
2022/06/28 18:44:23;;;;;;;1999.90;999.90;;;;;;;;;;6183658;23;20403;-67
2022/06/28 18:47:12;;;;;;;1999.90;999.90;;;;;;;;;;6183195;23;20169;-70
2022/06/28 18:49:57;;;;;;;1999.90;999.90;;;;;;;;;;6182790;23;20514;-70
2022/06/28 18:52:43;;;;;;;1999.90;999.90;;;;;;;;;;6182318;23;20647;-68
2022/06/28 18:55:28;;;;;;;1999.90;999.90;;;;;;;;;;6182977;23;20291;-69
2022/06/28 18:58:13;;;;;;;1999.90;999.90;;;;;;;;;;6182830;23;20214;-69
2022/06/28 19:00:58;;;;;;;1999.90;999.90;;;;;;;;;;6182715;23;20210;-69
2022/06/28 19:03:44;;;;;;;1999.90;999.90;;;;;;;;;;6183608;23;20171;-70
2022/06/28 19:06:29;;;;;;;1999.90;999.90;;;;;;;;;;6183397;23;20170;-69
2022/06/28 19:09:14;;;;;;;1999.90;999.90;;;;;;;;;;6182078;23;20370;-70
2022/06/28 19:11:59;;;;;;;1999.90;999.90;;;;;;;;;;6184219;23;20198;-69
2022/06/28 19:14:44;;;;;;;1999.90;999.90;;;;;;;;;;6185042;23;20171;-70
2022/06/28 19:17:31;;;;;;;1999.90;999.90;;;;;;;;;;6185354;23;20676;-69
2022/06/28 19:20:17;;;;;;;1999.90;999.90;;;;;;;;;;6183439;23;20170;-70
2022/06/28 19:23:02;;;;;;;1999.90;999.90;;;;;;;;;;6185079;23;20673;-69
2022/06/28 19:25:47;;;;;;;1999.90;999.90;;;;;;;;;;6184680;23;20219;-69
2022/06/28 19:28:32;;;;;;;1999.90;999.90;;;;;;;;;;6184707;23;20280;-70
2022/06/28 19:31:17;;;;;;;1999.90;999.90;;;;;;;;;;6185234;23;20672;-69
2022/06/28 19:34:02;;;;;;;1999.90;999.90;;;;;;;;;;6184563;23;20717;-69
2022/06/28 19:36:48;;;;;;;1999.90;999.90;;;;;;;;;;6185139;23;20170;-69
2022/06/28 19:39:33;;;;;;;1999.90;999.90;;;;;;;;;;6183995;23;20380;-69
2022/06/28 19:42:18;;;;;;;1999.90;999.90;;;;;;;;;;6184847;23;20530;-69
2022/06/28 19:45:04;;;;;;;1999.90;999.90;;;;;;;;;;6185190;23;20251;-69